sensor_id;sensor_type;location;lat;lon;timestamp;pressure;altitude;pressure_sealevel;temperature;humidity
65754;BME280;69207;47.502;18.940;2023-04-29T00:00:25;97960.59;;;10.66;60.55
65754;BME280;69207;47.502;18.940;2023-04-29T00:01:29;97962.97;;;10.81;59.29
65754;BME280;69207;47.502;18.940;2023-04-29T00:02:32;97958.13;;;10.70;59.93
65754;BME280;69207;47.502;18.940;2023-04-29T00:03:35;97958.53;;;10.76;59.90
65754;BME280;69207;47.502;18.940;2023-04-29T00:04:39;97956.97;;;10.73;60.09
65754;BME280;69207;47.502;18.940;2023-04-29T00:05:42;97954.97;;;10.64;61.22
65754;BME280;69207;47.502;18.940;2023-04-29T00:06:47;97950.69;;;10.61;62.65
65754;BME280;69207;47.502;18.940;2023-04-29T00:07:49;97956.03;;;10.58;63.13
65754;BME280;69207;47.502;18.940;2023-04-29T00:08:52;97950.84;;;10.53;63.24
65754;BME280;69207;47.502;18.940;2023-04-29T00:09:56;97945.56;;;10.67;60.43
65754;BME280;69207;47.502;18.940;2023-04-29T00:10:59;97953.53;;;10.63;60.75
65754;BME280;69207;47.502;18.940;2023-04-29T00:12:02;97948.56;;;10.71;60.56
65754;BME280;69207;47.502;18.940;2023-04-29T00:13:05;97955.09;;;10.66;60.79
65754;BME280;69207;47.502;18.940;2023-04-29T00:14:09;97953.91;;;10.78;59.86
65754;BME280;69207;47.502;18.940;2023-04-29T00:15:12;97952.47;;;10.77;59.42
65754;BME280;69207;47.502;18.940;2023-04-29T00:16:15;97950.81;;;10.84;59.02
65754;BME280;69207;47.502;18.940;2023-04-29T00:17:18;97953.91;;;10.78;59.04
65754;BME280;69207;47.502;18.940;2023-04-29T00:18:21;97948.00;;;10.72;59.78
65754;BME280;69207;47.502;18.940;2023-04-29T00:19:24;97941.25;;;10.85;58.85
65754;BME280;69207;47.502;18.940;2023-04-29T00:20:27;97952.53;;;10.89;57.98
65754;BME280;69207;47.502;18.940;2023-04-29T00:21:30;97942.37;;;10.92;58.36
65754;BME280;69207;47.502;18.940;2023-04-29T00:22:35;97937.19;;;10.86;58.45
65754;BME280;69207;47.502;18.940;2023-04-29T00:23:38;97933.63;;;10.83;59.26
65754;BME280;69207;47.502;18.940;2023-04-29T00:24:41;97938.91;;;10.91;58.62
65754;BME280;69207;47.502;18.940;2023-04-29T00:25:44;97937.97;;;10.98;57.80
65754;BME280;69207;47.502;18.940;2023-04-29T00:26:47;97936.37;;;11.05;56.90
65754;BME280;69207;47.502;18.940;2023-04-29T00:27:50;97927.47;;;10.95;57.71
65754;BME280;69207;47.502;18.940;2023-04-29T00:28:53;97937.31;;;10.88;58.33
65754;BME280;69207;47.502;18.940;2023-04-29T00:29:56;97932.81;;;10.93;58.68
65754;BME280;69207;47.502;18.940;2023-04-29T00:30:59;97943.25;;;10.94;58.93
65754;BME280;69207;47.502;18.940;2023-04-29T00:32:04;97930.66;;;10.91;59.25
65754;BME280;69207;47.502;18.940;2023-04-29T00:33:07;97940.00;;;10.98;57.96
65754;BME280;69207;47.502;18.940;2023-04-29T00:34:10;97938.19;;;10.91;58.62
65754;BME280;69207;47.502;18.940;2023-04-29T00:35:13;97948.19;;;10.86;58.78
65754;BME280;69207;47.502;18.940;2023-04-29T00:36:16;97947.22;;;10.81;59.24
65754;BME280;69207;47.502;18.940;2023-04-29T00:37:19;97940.22;;;10.90;58.22
65754;BME280;69207;47.502;18.940;2023-04-29T00:38:22;97946.16;;;10.87;58.47
65754;BME280;69207;47.502;18.940;2023-04-29T00:39:25;97954.41;;;10.87;58.62
65754;BME280;69207;47.502;18.940;2023-04-29T00:40:28;97952.59;;;10.79;58.32
65754;BME280;69207;47.502;18.940;2023-04-29T00:41:31;97956.25;;;10.72;59.13
65754;BME280;69207;47.502;18.940;2023-04-29T00:42:34;97953.25;;;10.90;58.35
65754;BME280;69207;47.502;18.940;2023-04-29T00:43:38;97958.75;;;10.90;57.33
65754;BME280;69207;47.502;18.940;2023-04-29T00:44:41;97960.22;;;10.81;58.12
65754;BME280;69207;47.502;18.940;2023-04-29T00:45:44;97957.75;;;10.85;58.31
65754;BME280;69207;47.502;18.940;2023-04-29T00:46:48;97961.94;;;10.86;58.02
65754;BME280;69207;47.502;18.940;2023-04-29T00:47:51;97961.28;;;10.76;58.95
65754;BME280;69207;47.502;18.940;2023-04-29T00:48:54;97959.13;;;10.74;59.23
65754;BME280;69207;47.502;18.940;2023-04-29T00:49:58;97966.91;;;10.78;58.16
65754;BME280;69207;47.502;18.940;2023-04-29T00:51:02;97955.59;;;10.83;57.78
65754;BME280;69207;47.502;18.940;2023-04-29T00:52:06;97958.34;;;10.83;57.68
65754;BME280;69207;47.502;18.940;2023-04-29T00:53:10;97956.50;;;10.76;58.57
65754;BME280;69207;47.502;18.940;2023-04-29T00:54:17;97958.28;;;10.72;59.50
65754;BME280;69207;47.502;18.940;2023-04-29T00:55:22;97963.91;;;10.74;60.05
65754;BME280;69207;47.502;18.940;2023-04-29T00:56:28;97949.03;;;10.67;60.94
65754;BME280;69207;47.502;18.940;2023-04-29T00:57:33;97955.09;;;10.66;61.66
65754;BME280;69207;47.502;18.940;2023-04-29T00:58:37;97958.59;;;10.66;61.94
65754;BME280;69207;47.502;18.940;2023-04-29T00:59:40;97959.88;;;10.65;61.45
65754;BME280;69207;47.502;18.940;2023-04-29T01:00:44;97950.69;;;10.61;61.90
65754;BME280;69207;47.502;18.940;2023-04-29T01:01:49;97953.88;;;10.57;62.14
65754;BME280;69207;47.502;18.940;2023-04-29T01:02:52;97950.84;;;10.53;61.77
65754;BME280;69207;47.502;18.940;2023-04-29T01:03:56;97948.25;;;10.55;61.93
65754;BME280;69207;47.502;18.940;2023-04-29T01:05:00;97954.47;;;10.55;62.28
65754;BME280;69207;47.502;18.940;2023-04-29T01:06:08;97945.34;;;10.53;62.38
65754;BME280;69207;47.502;18.940;2023-04-29T01:07:16;97954.78;;;10.50;63.38
65754;BME280;69207;47.502;18.940;2023-04-29T01:08:41;97961.34;;;10.66;61.21
65754;BME280;69207;47.502;18.940;2023-04-29T01:10:09;97956.59;;;10.57;61.79
65754;BME280;69207;47.502;18.940;2023-04-29T01:11:19;97958.31;;;10.62;61.46
65754;BME280;69207;47.502;18.940;2023-04-29T01:13:50;97952.63;;;10.70;60.02
65754;BME280;69207;47.502;18.940;2023-04-29T01:15:11;97950.91;;;10.65;60.68
65754;BME280;69207;47.502;18.940;2023-04-29T01:16:24;97960.09;;;10.79;59.56
65754;BME280;69207;47.502;18.940;2023-04-29T01:17:30;97955.38;;;10.70;60.24
65754;BME280;69207;47.502;18.940;2023-04-29T01:18:48;97948.78;;;10.63;61.23
65754;BME280;69207;47.502;18.940;2023-04-29T01:19:55;97945.63;;;10.57;61.61
65754;BME280;69207;47.502;18.940;2023-04-29T01:21:00;97948.09;;;10.53;62.31
65754;BME280;69207;47.502;18.940;2023-04-29T01:22:03;97950.25;;;10.54;62.70
65754;BME280;69207;47.502;18.940;2023-04-29T01:23:06;97950.72;;;10.51;62.73
65754;BME280;69207;47.502;18.940;2023-04-29T01:24:09;97944.94;;;10.47;62.96
65754;BME280;69207;47.502;18.940;2023-04-29T01:25:12;97943.37;;;10.44;63.25
65754;BME280;69207;47.502;18.940;2023-04-29T01:26:15;97952.78;;;10.41;63.04
65754;BME280;69207;47.502;18.940;2023-04-29T01:27:30;97944.53;;;10.41;63.19
65754;BME280;69207;47.502;18.940;2023-04-29T01:28:49;97952.34;;;10.44;63.06
65754;BME280;69207;47.502;18.940;2023-04-29T01:30:17;97953.28;;;10.58;62.97
65754;BME280;69207;47.502;18.940;2023-04-29T01:31:30;97951.88;;;10.48;62.89
65754;BME280;69207;47.502;18.940;2023-04-29T01:34:08;97945.81;;;10.49;63.19
65754;BME280;69207;47.502;18.940;2023-04-29T01:35:26;97944.81;;;10.45;63.07
65754;BME280;69207;47.502;18.940;2023-04-29T01:36:56;97934.75;;;10.59;62.30
65754;BME280;69207;47.502;18.940;2023-04-29T01:38:22;97939.12;;;10.52;61.70
65754;BME280;69207;47.502;18.940;2023-04-29T01:42:15;97938.41;;;10.52;62.01
65754;BME280;69207;47.502;18.940;2023-04-29T01:43:22;97935.00;;;10.42;62.62
65754;BME280;69207;47.502;18.940;2023-04-29T01:44:28;97936.00;;;10.46;63.12
65754;BME280;69207;47.502;18.940;2023-04-29T01:45:33;97937.63;;;10.40;63.57
65754;BME280;69207;47.502;18.940;2023-04-29T01:46:37;97931.84;;;10.36;63.89
65754;BME280;69207;47.502;18.940;2023-04-29T01:47:40;97927.50;;;10.32;63.81
65754;BME280;69207;47.502;18.940;2023-04-29T01:48:45;97937.78;;;10.32;64.00
65754;BME280;69207;47.502;18.940;2023-04-29T01:49:48;97925.38;;;10.31;64.20
65754;BME280;69207;47.502;18.940;2023-04-29T01:50:51;97931.12;;;10.35;64.25
65754;BME280;69207;47.502;18.940;2023-04-29T01:51:54;97929.41;;;10.30;63.98
65754;BME280;69207;47.502;18.940;2023-04-29T01:52:57;97928.41;;;10.25;64.53
65754;BME280;69207;47.502;18.940;2023-04-29T01:54:00;97935.22;;;10.24;64.63
65754;BME280;69207;47.502;18.940;2023-04-29T01:55:04;97932.16;;;10.20;65.18
65754;BME280;69207;47.502;18.940;2023-04-29T01:56:07;97931.31;;;10.18;65.27
65754;BME280;69207;47.502;18.940;2023-04-29T01:57:10;97931.03;;;10.23;65.00
65754;BME280;69207;47.502;18.940;2023-04-29T01:58:14;97934.91;;;10.20;65.12
65754;BME280;69207;47.502;18.940;2023-04-29T01:59:17;97936.09;;;10.17;65.67
65754;BME280;69207;47.502;18.940;2023-04-29T02:00:19;97935.94;;;10.15;65.73
65754;BME280;69207;47.502;18.940;2023-04-29T02:01:23;97935.81;;;10.13;65.18
65754;BME280;69207;47.502;18.940;2023-04-29T02:02:29;97937.84;;;10.13;65.24
65754;BME280;69207;47.502;18.940;2023-04-29T02:03:32;97931.62;;;10.12;65.25
65754;BME280;69207;47.502;18.940;2023-04-29T02:04:36;97932.88;;;10.21;65.19
65754;BME280;69207;47.502;18.940;2023-04-29T02:05:39;97936.53;;;10.23;64.73
65754;BME280;69207;47.502;18.940;2023-04-29T02:06:42;97930.03;;;10.19;64.95
65754;BME280;69207;47.502;18.940;2023-04-29T02:07:46;97927.00;;;10.15;65.37
65754;BME280;69207;47.502;18.940;2023-04-29T02:08:49;97933.06;;;10.13;65.74
65754;BME280;69207;47.502;18.940;2023-04-29T02:09:52;97927.72;;;10.15;65.62
65754;BME280;69207;47.502;18.940;2023-04-29T02:10:57;97932.47;;;10.15;65.73
65754;BME280;69207;47.502;18.940;2023-04-29T02:12:00;97927.59;;;10.13;65.99
65754;BME280;69207;47.502;18.940;2023-04-29T02:13:06;97927.59;;;10.13;65.93
65754;BME280;69207;47.502;18.940;2023-04-29T02:14:09;97931.62;;;10.12;65.77
65754;BME280;69207;47.502;18.940;2023-04-29T02:15:12;97934.38;;;10.12;66.12
65754;BME280;69207;47.502;18.940;2023-04-29T02:16:15;97937.97;;;10.15;66.01
65754;BME280;69207;47.502;18.940;2023-04-29T02:17:18;97935.37;;;10.17;66.13
65754;BME280;69207;47.502;18.940;2023-04-29T02:18:22;97937.41;;;10.16;65.71
65754;BME280;69207;47.502;18.940;2023-04-29T02:19:25;97935.09;;;10.13;66.10
65754;BME280;69207;47.502;18.940;2023-04-29T02:20:28;97936.34;;;10.21;65.95
65754;BME280;69207;47.502;18.940;2023-04-29T02:21:31;97930.13;;;10.30;64.60
65754;BME280;69207;47.502;18.940;2023-04-29T02:22:34;97930.56;;;10.27;64.47
65754;BME280;69207;47.502;18.940;2023-04-29T02:23:37;97927.56;;;10.23;64.71
65754;BME280;69207;47.502;18.940;2023-04-29T02:24:40;97923.09;;;10.18;64.98
65754;BME280;69207;47.502;18.940;2023-04-29T02:25:47;97918.03;;;10.24;64.91
65754;BME280;69207;47.502;18.940;2023-04-29T02:26:50;97920.78;;;10.24;64.23
65754;BME280;69207;47.502;18.940;2023-04-29T02:27:54;97917.00;;;10.19;64.34
65754;BME280;69207;47.502;18.940;2023-04-29T02:28:57;97912.69;;;10.16;64.09
65754;BME280;69207;47.502;18.940;2023-04-29T02:30:00;97911.97;;;10.16;63.62
65754;BME280;69207;47.502;18.940;2023-04-29T02:31:03;97912.44;;;10.12;63.84
65754;BME280;69207;47.502;18.940;2023-04-29T02:32:06;97915.44;;;10.16;63.33
65754;BME280;69207;47.502;18.940;2023-04-29T02:33:10;97905.91;;;10.17;63.33
65754;BME280;69207;47.502;18.940;2023-04-29T02:34:13;97912.94;;;10.20;62.63
65754;BME280;69207;47.502;18.940;2023-04-29T02:35:16;97907.94;;;10.17;63.04
65754;BME280;69207;47.502;18.940;2023-04-29T02:36:19;97913.97;;;10.15;62.88
65754;BME280;69207;47.502;18.940;2023-04-29T02:37:23;97913.00;;;10.11;63.31
65754;BME280;69207;47.502;18.940;2023-04-29T02:38:26;97914.44;;;10.12;63.08
65754;BME280;69207;47.502;18.940;2023-04-29T02:39:29;97917.03;;;10.10;63.19
65754;BME280;69207;47.502;18.940;2023-04-29T02:40:32;97916.91;;;10.08;63.32
65754;BME280;69207;47.502;18.940;2023-04-29T02:41:35;97909.22;;;10.16;63.40
65754;BME280;69207;47.502;18.940;2023-04-29T02:42:38;97908.97;;;10.12;64.02
65754;BME280;69207;47.502;18.940;2023-04-29T02:43:41;97904.50;;;10.07;64.23
65754;BME280;69207;47.502;18.940;2023-04-29T02:44:45;97911.31;;;10.05;64.52
65754;BME280;69207;47.502;18.940;2023-04-29T02:45:48;97910.44;;;10.03;64.68
65754;BME280;69207;47.502;18.940;2023-04-29T02:46:51;97908.28;;;10.01;63.69
65754;BME280;69207;47.502;18.940;2023-04-29T02:47:55;97907.41;;;9.99;63.98
65754;BME280;69207;47.502;18.940;2023-04-29T02:48:58;97903.50;;;10.02;64.51
65754;BME280;69207;47.502;18.940;2023-04-29T02:50:02;97909.00;;;10.02;64.03
65754;BME280;69207;47.502;18.940;2023-04-29T02:51:06;97907.84;;;10.05;64.30
65754;BME280;69207;47.502;18.940;2023-04-29T02:52:09;97914.28;;;10.10;63.44
65754;BME280;69207;47.502;18.940;2023-04-29T02:53:12;97909.28;;;10.06;62.97
65754;BME280;69207;47.502;18.940;2023-04-29T02:54:16;97909.19;;;10.25;61.47
65754;BME280;69207;47.502;18.940;2023-04-29T02:55:19;97903.00;;;10.25;61.36
65754;BME280;69207;47.502;18.940;2023-04-29T02:56:22;97903.88;;;10.18;61.82
65754;BME280;69207;47.502;18.940;2023-04-29T02:57:25;97907.53;;;10.11;61.98
65754;BME280;69207;47.502;18.940;2023-04-29T02:58:28;97902.47;;;10.07;61.77
65754;BME280;69207;47.502;18.940;2023-04-29T02:59:31;97903.16;;;10.17;61.98
65754;BME280;69207;47.502;18.940;2023-04-29T03:00:34;97908.50;;;10.15;61.55
65754;BME280;69207;47.502;18.940;2023-04-29T03:01:37;97899.84;;;10.09;61.98
65754;BME280;69207;47.502;18.940;2023-04-29T03:02:40;97909.41;;;10.08;61.72
65754;BME280;69207;47.502;18.940;2023-04-29T03:03:44;97908.69;;;10.08;61.94
65754;BME280;69207;47.502;18.940;2023-04-29T03:04:47;97906.03;;;10.19;61.25
65754;BME280;69207;47.502;18.940;2023-04-29T03:05:50;97909.81;;;10.14;61.39
65754;BME280;69207;47.502;18.940;2023-04-29T03:06:56;97904.91;;;10.13;62.14
65754;BME280;69207;47.502;18.940;2023-04-29T03:07:59;97905.22;;;10.07;61.64
65754;BME280;69207;47.502;18.940;2023-04-29T03:09:02;97906.13;;;10.00;62.20
65754;BME280;69207;47.502;18.940;2023-04-29T03:10:06;97910.31;;;10.01;62.24
65754;BME280;69207;47.502;18.940;2023-04-29T03:11:09;97902.91;;;10.03;62.33
65754;BME280;69207;47.502;18.940;2023-04-29T03:12:12;97900.25;;;10.15;60.85
65754;BME280;69207;47.502;18.940;2023-04-29T03:13:15;97903.19;;;10.08;61.21
65754;BME280;69207;47.502;18.940;2023-04-29T03:14:18;97903.50;;;10.02;61.87
65754;BME280;69207;47.502;18.940;2023-04-29T03:15:21;97903.47;;;10.12;61.30
65754;BME280;69207;47.502;18.940;2023-04-29T03:16:24;97908.50;;;10.15;60.69
65754;BME280;69207;47.502;18.940;2023-04-29T03:17:27;97906.06;;;10.10;61.11
65754;BME280;69207;47.502;18.940;2023-04-29T03:18:30;97902.59;;;10.09;61.11
65754;BME280;69207;47.502;18.940;2023-04-29T03:19:34;97899.41;;;10.13;61.23
65754;BME280;69207;47.502;18.940;2023-04-29T03:20:37;97901.56;;;10.14;60.95
65754;BME280;69207;47.502;18.940;2023-04-29T03:21:40;97902.16;;;10.13;60.92
65754;BME280;69207;47.502;18.940;2023-04-29T03:22:43;97898.69;;;10.12;60.78
65754;BME280;69207;47.502;18.940;2023-04-29T03:23:46;97900.25;;;10.15;60.69
65754;BME280;69207;47.502;18.940;2023-04-29T03:24:49;97903.00;;;10.15;60.46
65754;BME280;69207;47.502;18.940;2023-04-29T03:25:52;97896.47;;;10.20;60.33
65754;BME280;69207;47.502;18.940;2023-04-29T03:26:57;97897.19;;;10.21;60.37
65754;BME280;69207;47.502;18.940;2023-04-29T03:28:01;97902.41;;;10.26;59.92
65754;BME280;69207;47.502;18.940;2023-04-29T03:29:05;97897.50;;;10.15;60.27
65754;BME280;69207;47.502;18.940;2023-04-29T03:30:08;97901.03;;;10.06;61.09
65754;BME280;69207;47.502;18.940;2023-04-29T03:31:11;97897.16;;;9.99;61.77
65754;BME280;69207;47.502;18.940;2023-04-29T03:32:14;97895.28;;;10.02;61.85
65754;BME280;69207;47.502;18.940;2023-04-29T03:33:17;97899.31;;;10.01;61.71
65754;BME280;69207;47.502;18.940;2023-04-29T03:34:21;97907.28;;;9.97;62.01
65754;BME280;69207;47.502;18.940;2023-04-29T03:35:24;97908.00;;;9.97;61.93
65754;BME280;69207;47.502;18.940;2023-04-29T03:36:27;97907.69;;;10.03;61.05
65754;BME280;69207;47.502;18.940;2023-04-29T03:37:30;97904.09;;;10.00;61.02
65754;BME280;69207;47.502;18.940;2023-04-29T03:38:34;97901.91;;;9.99;61.30
65754;BME280;69207;47.502;18.940;2023-04-29T03:39:37;97913.75;;;10.01;61.18
65754;BME280;69207;47.502;18.940;2023-04-29T03:40:40;97912.87;;;9.99;61.19
65754;BME280;69207;47.502;18.940;2023-04-29T03:41:43;97918.38;;;9.99;61.33
65754;BME280;69207;47.502;18.940;2023-04-29T03:42:46;97918.81;;;10.05;61.33
65754;BME280;69207;47.502;18.940;2023-04-29T03:43:49;97925.31;;;10.00;61.08
65754;BME280;69207;47.502;18.940;2023-04-29T03:44:53;97918.13;;;9.95;61.46
65754;BME280;69207;47.502;18.940;2023-04-29T03:45:56;97929.66;;;9.93;62.76
65754;BME280;69207;47.502;18.940;2023-04-29T03:46:59;97931.56;;;9.91;63.21
65754;BME280;69207;47.502;18.940;2023-04-29T03:48:02;97926.66;;;9.89;63.00
65754;BME280;69207;47.502;18.940;2023-04-29T03:49:05;97936.75;;;9.87;63.06
65754;BME280;69207;47.502;18.940;2023-04-29T03:50:09;97936.88;;;9.98;62.82
65754;BME280;69207;47.502;18.940;2023-04-29T03:51:12;97936.47;;;9.92;61.82
65754;BME280;69207;47.502;18.940;2023-04-29T03:52:15;97933.59;;;9.90;62.50
65754;BME280;69207;47.502;18.940;2023-04-29T03:53:19;97934.00;;;9.87;62.41
65754;BME280;69207;47.502;18.940;2023-04-29T03:54:23;97935.31;;;9.95;62.49
65754;BME280;69207;47.502;18.940;2023-04-29T03:55:26;97941.78;;;10.00;62.15
65754;BME280;69207;47.502;18.940;2023-04-29T03:56:30;97937.19;;;9.93;63.01
65754;BME280;69207;47.502;18.940;2023-04-29T03:57:33;97947.72;;;9.96;62.86
65754;BME280;69207;47.502;18.940;2023-04-29T03:58:36;97942.22;;;9.96;63.30
65754;BME280;69207;47.502;18.940;2023-04-29T03:59:39;97940.06;;;9.95;63.55
65754;BME280;69207;47.502;18.940;2023-04-29T04:00:42;97938.47;;;9.92;62.30
65754;BME280;69207;47.502;18.940;2023-04-29T04:01:45;97950.47;;;9.87;62.71
65754;BME280;69207;47.502;18.940;2023-04-29T04:02:49;97948.75;;;9.91;63.30
65754;BME280;69207;47.502;18.940;2023-04-29T04:03:52;97947.03;;;9.86;63.44
65754;BME280;69207;47.502;18.940;2023-04-29T04:04:55;97944.72;;;9.83;63.22
65754;BME280;69207;47.502;18.940;2023-04-29T04:05:58;97946.00;;;9.82;63.47
65754;BME280;69207;47.502;18.940;2023-04-29T04:07:01;97946.72;;;9.82;63.38
65754;BME280;69207;47.502;18.940;2023-04-29T04:08:05;97954.53;;;9.86;63.28
65754;BME280;69207;47.502;18.940;2023-04-29T04:09:08;97950.34;;;9.85;62.75
65754;BME280;69207;47.502;18.940;2023-04-29T04:10:11;97941.66;;;9.88;62.13
65754;BME280;69207;47.502;18.940;2023-04-29T04:11:14;97952.06;;;9.90;61.65
65754;BME280;69207;47.502;18.940;2023-04-29T04:12:17;97958.13;;;9.88;62.05
65754;BME280;69207;47.502;18.940;2023-04-29T04:13:20;97948.63;;;9.89;62.16
65754;BME280;69207;47.502;18.940;2023-04-29T04:14:23;97945.88;;;9.89;62.52
65754;BME280;69207;47.502;18.940;2023-04-29T04:15:26;97939.66;;;9.89;62.90
65754;BME280;69207;47.502;18.940;2023-04-29T04:16:29;97941.50;;;9.96;62.87
65754;BME280;69207;47.502;18.940;2023-04-29T04:17:32;97946.88;;;9.94;61.65
65754;BME280;69207;47.502;18.940;2023-04-29T04:18:36;97943.37;;;9.93;62.11
65754;BME280;69207;47.502;18.940;2023-04-29T04:19:40;97942.81;;;9.95;61.96
65754;BME280;69207;47.502;18.940;2023-04-29T04:20:43;97936.75;;;9.96;60.89
65754;BME280;69207;47.502;18.940;2023-04-29T04:21:46;97940.63;;;9.93;61.21
65754;BME280;69207;47.502;18.940;2023-04-29T04:22:49;97939.19;;;9.92;61.79
65754;BME280;69207;47.502;18.940;2023-04-29T04:23:52;97939.34;;;9.94;61.52
65754;BME280;69207;47.502;18.940;2023-04-29T04:24:55;97941.94;;;9.92;61.72
65754;BME280;69207;47.502;18.940;2023-04-29T04:25:58;97949.75;;;9.96;62.09
65754;BME280;69207;47.502;18.940;2023-04-29T04:27:02;97940.50;;;9.91;62.23
65754;BME280;69207;47.502;18.940;2023-04-29T04:28:04;97946.41;;;9.97;62.66
65754;BME280;69207;47.502;18.940;2023-04-29T04:29:08;97951.47;;;10.01;62.12
65754;BME280;69207;47.502;18.940;2023-04-29T04:30:11;97948.44;;;9.97;62.25
65754;BME280;69207;47.502;18.940;2023-04-29T04:31:15;97951.06;;;9.95;62.15
65754;BME280;69207;47.502;18.940;2023-04-29T04:32:18;97947.00;;;9.96;61.48
65754;BME280;69207;47.502;18.940;2023-04-29T04:33:21;97955.09;;;9.94;61.86
65754;BME280;69207;47.502;18.940;2023-04-29T04:34:24;97953.63;;;9.93;62.28
65754;BME280;69207;47.502;18.940;2023-04-29T04:35:28;97951.19;;;9.97;62.57
65754;BME280;69207;47.502;18.940;2023-04-29T04:36:31;97950.75;;;10.00;61.47
65754;BME280;69207;47.502;18.940;2023-04-29T04:37:34;97949.16;;;9.97;61.91
65754;BME280;69207;47.502;18.940;2023-04-29T04:38:38;97957.38;;;10.07;61.31
65754;BME280;69207;47.502;18.940;2023-04-29T04:39:41;97946.69;;;10.01;61.46
65754;BME280;69207;47.502;18.940;2023-04-29T04:40:44;97944.06;;;10.13;60.78
65754;BME280;69207;47.502;18.940;2023-04-29T04:41:54;97938.69;;;10.15;60.59
65754;BME280;69207;47.502;18.940;2023-04-29T04:42:56;97941.75;;;10.10;60.90
65754;BME280;69207;47.502;18.940;2023-04-29T04:43:59;97937.16;;;10.02;61.67
65754;BME280;69207;47.502;18.940;2023-04-29T04:45:03;97949.88;;;9.98;62.57
65754;BME280;69207;47.502;18.940;2023-04-29T04:46:13;97944.38;;;9.98;62.90
65754;BME280;69207;47.502;18.940;2023-04-29T04:47:16;97949.88;;;9.98;63.10
65754;BME280;69207;47.502;18.940;2023-04-29T04:48:20;97947.28;;;10.00;61.79
65754;BME280;69207;47.502;18.940;2023-04-29T04:49:23;97945.09;;;9.98;62.45
65754;BME280;69207;47.502;18.940;2023-04-29T04:50:27;97942.94;;;9.97;63.30
65754;BME280;69207;47.502;18.940;2023-04-29T04:51:31;97941.63;;;9.98;63.74
65754;BME280;69207;47.502;18.940;2023-04-29T04:52:34;97948.56;;;9.99;63.78
65754;BME280;69207;47.502;18.940;2023-04-29T04:53:38;97945.81;;;9.99;64.56
65754;BME280;69207;47.502;18.940;2023-04-29T04:54:44;97934.28;;;10.00;64.67
65754;BME280;69207;47.502;18.940;2023-04-29T04:55:48;97939.06;;;10.00;65.21
65754;BME280;69207;47.502;18.940;2023-04-29T04:56:51;97940.34;;;9.99;66.02
65754;BME280;69207;47.502;18.940;2023-04-29T04:57:54;97929.56;;;10.22;62.93
65754;BME280;69207;47.502;18.940;2023-04-29T04:58:57;97929.31;;;10.18;62.72
65754;BME280;69207;47.502;18.940;2023-04-29T05:00:00;97932.16;;;10.20;63.52
65754;BME280;69207;47.502;18.940;2023-04-29T05:01:03;97922.38;;;10.17;64.82
65754;BME280;69207;47.502;18.940;2023-04-29T05:02:06;97929.31;;;10.18;64.84
65754;BME280;69207;47.502;18.940;2023-04-29T05:03:10;97931.03;;;10.23;64.30
65754;BME280;69207;47.502;18.940;2023-04-29T05:04:13;97930.25;;;10.32;64.29
65754;BME280;69207;47.502;18.940;2023-04-29T05:05:17;97930.38;;;10.44;62.73
65754;BME280;69207;47.502;18.940;2023-04-29T05:06:20;97930.94;;;10.43;62.60
65754;BME280;69207;47.502;18.940;2023-04-29T05:07:23;97927.47;;;10.42;62.79
65754;BME280;69207;47.502;18.940;2023-04-29T05:08:26;97933.69;;;10.43;62.70
65754;BME280;69207;47.502;18.940;2023-04-29T05:09:30;97936.44;;;10.43;62.73
65754;BME280;69207;47.502;18.940;2023-04-29T05:10:36;97937.91;;;10.44;62.96
65754;BME280;69207;47.502;18.940;2023-04-29T05:11:39;97942.47;;;10.51;62.14
65754;BME280;69207;47.502;18.940;2023-04-29T05:12:43;97945.22;;;10.51;61.94
65754;BME280;69207;47.502;18.940;2023-04-29T05:13:47;97939.22;;;10.64;60.16
65754;BME280;69207;47.502;18.940;2023-04-29T05:14:53;97946.34;;;10.57;60.00
65754;BME280;69207;47.502;18.940;2023-04-29T05:15:56;97938.69;;;10.56;59.53
65754;BME280;69207;47.502;18.940;2023-04-29T05:16:59;97943.63;;;10.48;60.01
65754;BME280;69207;47.502;18.940;2023-04-29T05:18:03;97941.94;;;10.43;60.58
65754;BME280;69207;47.502;18.940;2023-04-29T05:19:06;97942.53;;;10.41;60.50
65754;BME280;69207;47.502;18.940;2023-04-29T05:20:11;97938.34;;;10.40;60.70
65754;BME280;69207;47.502;18.940;2023-04-29T05:21:14;97934.00;;;10.37;60.73
65754;BME280;69207;47.502;18.940;2023-04-29T05:22:19;97940.63;;;10.44;60.67
65754;BME280;69207;47.502;18.940;2023-04-29T05:23:22;97942.59;;;10.53;60.25
65754;BME280;69207;47.502;18.940;2023-04-29T05:24:25;97943.06;;;10.49;59.93
65754;BME280;69207;47.502;18.940;2023-04-29T05:25:29;97934.25;;;10.51;60.03
65754;BME280;69207;47.502;18.940;2023-04-29T05:26:32;97943.53;;;10.67;58.99
65754;BME280;69207;47.502;18.940;2023-04-29T05:27:35;97940.25;;;10.59;59.03
65754;BME280;69207;47.502;18.940;2023-04-29T05:28:38;97940.97;;;10.60;59.62
65754;BME280;69207;47.502;18.940;2023-04-29T05:29:41;97937.09;;;10.53;60.23
65754;BME280;69207;47.502;18.940;2023-04-29T05:30:45;97944.81;;;10.45;60.43
65754;BME280;69207;47.502;18.940;2023-04-29T05:31:49;97941.53;;;10.37;61.55
65754;BME280;69207;47.502;18.940;2023-04-29T05:32:52;97945.31;;;10.31;61.54
65754;BME280;69207;47.502;18.940;2023-04-29T05:33:55;97953.41;;;10.29;61.78
65754;BME280;69207;47.502;18.940;2023-04-29T05:34:58;97952.50;;;10.37;60.94
65754;BME280;69207;47.502;18.940;2023-04-29T05:36:01;97953.53;;;10.31;61.47
65754;BME280;69207;47.502;18.940;2023-04-29T05:37:04;97947.03;;;10.27;62.06
65754;BME280;69207;47.502;18.940;2023-04-29T05:38:08;97950.81;;;10.22;61.56
65754;BME280;69207;47.502;18.940;2023-04-29T05:39:11;97958.19;;;10.19;62.40
65754;BME280;69207;47.502;18.940;2023-04-29T05:40:14;97954.12;;;10.20;62.51
65754;BME280;69207;47.502;18.940;2023-04-29T05:41:17;97954.84;;;10.21;62.36
65754;BME280;69207;47.502;18.940;2023-04-29T05:42:20;97957.47;;;10.19;62.28